createdAt,value
2022-08-09T00:01:52.806Z,3.40
2022-08-09T00:04:34.235Z,5.97
2022-08-09T00:07:07.842Z,2.83
2022-08-09T00:09:39.526Z,4.23
2022-08-09T00:12:22.434Z,3.07
2022-08-09T00:14:51.185Z,3.20
2022-08-09T00:18:04.608Z,4.87
2022-08-09T00:20:14.188Z,4.47
2022-08-09T00:22:44.890Z,3.60
2022-08-09T00:25:15.552Z,2.80
2022-08-09T00:27:53.286Z,3.30
2022-08-09T00:30:25.158Z,3.70
2022-08-09T00:32:54.311Z,3.47
2022-08-09T00:35:24.060Z,4.10
2022-08-09T00:37:52.360Z,4.70
2022-08-09T00:40:22.001Z,3.47
2022-08-09T00:44:15.132Z,3.93
2022-08-09T00:45:53.820Z,2.93
2022-08-09T00:48:22.693Z,5.90
2022-08-09T00:50:52.288Z,4.40
2022-08-09T00:53:24.046Z,3.53
2022-08-09T00:56:04.907Z,3.13
2022-08-09T00:58:39.138Z,3.87
2022-08-09T01:01:15.850Z,3.43
2022-08-09T01:03:52.450Z,6.37
2022-08-09T01:06:53.269Z,3.27
2022-08-09T01:09:26.356Z,4.47
2022-08-09T01:12:09.524Z,3.40
2022-08-09T01:14:48.035Z,2.60
2022-08-09T01:17:25.449Z,3.30
2022-08-09T01:20:03.374Z,3.60
2022-08-09T01:22:54.811Z,3.30
2022-08-09T01:25:33.186Z,3.40
2022-08-09T01:28:12.406Z,5.77
2022-08-09T01:30:51.544Z,3.60
2022-08-09T01:33:29.925Z,6.50
2022-08-09T01:36:03.223Z,6.60
2022-08-09T01:38:36.386Z,3.27
2022-08-09T01:41:10.193Z,4.20
2022-08-09T01:43:51.636Z,3.33
2022-08-09T01:46:25.036Z,4.50
2022-08-09T01:49:00.263Z,4.67
2022-08-09T01:51:42.702Z,4.87
2022-08-09T01:54:12.803Z,4.00
2022-08-09T01:56:43.195Z,5.50
2022-08-09T01:59:19.922Z,4.13
2022-08-09T02:01:59.597Z,5.47
2022-08-09T02:04:30.082Z,4.10
2022-08-09T02:08:40.560Z,3.93
2022-08-09T02:10:18.776Z,3.93
2022-08-09T02:12:58.966Z,7.00
2022-08-09T02:15:36.246Z,5.13
2022-08-09T02:18:21.220Z,5.47
2022-08-09T02:21:00.876Z,3.70
2022-08-09T02:23:32.104Z,5.63
2022-08-09T02:26:26.796Z,3.53
2022-08-09T02:29:00.090Z,6.63
2022-08-09T02:31:34.057Z,5.00
2022-08-09T02:34:13.200Z,5.80
2022-08-09T02:36:43.573Z,4.27
2022-08-09T02:39:20.322Z,235.90
2022-08-09T02:42:08.297Z,4.87
2022-08-09T02:44:38.463Z,3.87
2022-08-09T02:47:11.359Z,5.27
2022-08-09T02:49:55.489Z,7.30
2022-08-09T02:52:35.382Z,3.83
2022-08-09T02:55:20.002Z,4.30
2022-08-09T02:58:32.711Z,3.60
2022-08-09T03:00:57.963Z,3.77
2022-08-09T03:04:12.338Z,4.80
2022-08-09T03:06:18.886Z,4.10
2022-08-09T03:08:50.958Z,3.93
2022-08-09T03:11:30.210Z,6.70
2022-08-09T03:14:12.758Z,3.70
2022-08-09T03:16:45.074Z,4.27
2022-08-09T03:19:52.725Z,4.23
2022-08-09T03:22:12.383Z,4.90
2022-08-09T03:25:06.427Z,3.93
2022-08-09T03:27:44.544Z,4.13
2022-08-09T03:30:28.116Z,4.67
2022-08-09T03:33:12.761Z,4.67
2022-08-09T03:36:12.975Z,4.40
2022-08-09T03:38:35.797Z,5.13
2022-08-09T03:41:06.140Z,4.97
2022-08-09T03:43:34.717Z,4.80
2022-08-09T03:46:27.010Z,4.97
2022-08-09T03:48:56.495Z,5.87
2022-08-09T03:51:56.442Z,5.57
2022-08-09T03:54:16.144Z,5.73
2022-08-09T03:56:46.607Z,7.50
2022-08-09T03:59:20.800Z,5.70
2022-08-09T04:01:50.618Z,5.10
2022-08-09T04:04:19.599Z,6.00
2022-08-09T04:06:50.021Z,4.97
2022-08-09T04:09:44.375Z,5.63
2022-08-09T04:12:31.048Z,5.70
2022-08-09T04:15:02.457Z,6.00
2022-08-09T04:17:42.367Z,8.20
2022-08-09T04:20:13.631Z,6.00
2022-08-09T04:22:44.809Z,9.10
2022-08-09T04:25:13.780Z,4.97
2022-08-09T04:27:46.709Z,5.37
2022-08-09T04:30:20.819Z,5.73
2022-08-09T04:32:52.063Z,5.50
2022-08-09T04:35:21.858Z,6.03
2022-08-09T04:37:54.481Z,5.87
2022-08-09T04:40:35.998Z,4.70
2022-08-09T04:43:05.936Z,6.27
2022-08-09T04:45:36.178Z,5.60
2022-08-09T04:48:23.816Z,5.53
2022-08-09T04:51:01.791Z,6.20
2022-08-09T04:53:31.631Z,6.40
2022-08-09T04:56:00.478Z,6.23
2022-08-09T04:58:29.810Z,5.33
2022-08-09T05:01:00.485Z,6.83
2022-08-09T05:03:43.049Z,5.97
2022-08-09T05:06:21.782Z,5.43
2022-08-09T05:09:00.338Z,5.90
2022-08-09T05:11:32.133Z,12.40
2022-08-09T05:14:06.024Z,11.13
2022-08-09T05:16:58.107Z,5.93
2022-08-09T05:19:26.215Z,5.33
2022-08-09T05:22:00.311Z,6.67
2022-08-09T05:24:29.894Z,5.60
2022-08-09T05:26:58.483Z,6.87
2022-08-09T05:29:31.292Z,7.73
2022-08-09T05:32:01.211Z,8.60
2022-08-09T05:34:31.605Z,10.00
2022-08-09T05:37:05.335Z,4.63
2022-08-09T05:39:43.736Z,4.80
2022-08-09T05:42:17.983Z,7.07
2022-08-09T05:44:57.319Z,6.27
2022-08-09T05:47:27.160Z,5.70
2022-08-09T05:50:25.040Z,14.63
2022-08-09T05:52:53.482Z,7.40
2022-08-09T05:55:24.472Z,4.90
2022-08-09T05:57:56.515Z,4.37
2022-08-09T06:00:29.177Z,6.73
2022-08-09T06:02:58.618Z,4.23
2022-08-09T06:05:30.826Z,5.50
2022-08-09T06:08:19.743Z,5.03
2022-08-09T06:10:56.233Z,4.57
2022-08-09T06:13:28.523Z,8.00
2022-08-09T06:16:04.666Z,4.73
2022-08-09T06:18:33.814Z,7.63
2022-08-09T06:21:04.348Z,8.67
2022-08-09T06:23:57.433Z,12.93
2022-08-09T06:26:28.243Z,4.43
2022-08-09T06:28:59.438Z,6.83
2022-08-09T06:31:31.321Z,6.30
2022-08-09T06:34:00.143Z,5.27
2022-08-09T06:36:29.765Z,5.00
2022-08-09T06:38:58.787Z,3.33
2022-08-09T06:41:58.847Z,5.07
2022-08-09T06:44:21.279Z,3.63
2022-08-09T06:46:55.471Z,4.37
2022-08-09T06:49:44.487Z,4.23
2022-08-09T06:52:15.969Z,5.63
2022-08-09T06:54:44.607Z,3.47
2022-08-09T06:57:14.274Z,3.40
2022-08-09T07:00:49.544Z,4.37
2022-08-09T07:02:32.083Z,6.30
2022-08-09T07:05:00.875Z,3.43
2022-08-09T07:07:59.681Z,3.20
2022-08-09T07:10:29.722Z,3.90
2022-08-09T07:13:18.799Z,5.60
2022-08-09T07:15:53.920Z,2.83
2022-08-09T07:18:38.816Z,3.97
2022-08-09T07:21:07.801Z,3.07
2022-08-09T07:23:36.500Z,3.03
2022-08-09T07:26:24.880Z,5.43
2022-08-09T07:29:01.405Z,4.20
2022-08-09T07:31:38.610Z,5.60
2022-08-09T07:34:19.596Z,4.07
2022-08-09T07:36:50.186Z,4.67
2022-08-09T07:39:40.269Z,3.20
2022-08-09T07:42:09.942Z,2.90
2022-08-09T07:44:52.390Z,5.40
2022-08-09T07:47:23.473Z,3.77
2022-08-09T07:50:05.435Z,2.93
2022-08-09T07:52:38.362Z,2.40
2022-08-09T07:55:08.860Z,2.30
2022-08-09T07:57:46.864Z,2.93
2022-08-09T08:00:20.316Z,6.87
2022-08-09T08:03:04.613Z,2.37
2022-08-09T08:05:53.425Z,3.03
2022-08-09T08:09:00.804Z,4.40
2022-08-09T08:12:11.149Z,2.63
2022-08-09T08:13:58.238Z,2.90
2022-08-09T08:16:31.997Z,3.83
2022-08-09T08:19:04.561Z,2.60
2022-08-09T08:21:33.127Z,3.73
2022-08-09T08:24:12.142Z,2.63
2022-08-09T08:26:55.909Z,2.43
2022-08-09T08:29:28.231Z,6.33
2022-08-09T08:32:04.116Z,3.73
2022-08-09T08:34:36.345Z,4.63
2022-08-09T08:37:05.317Z,2.03
2022-08-09T08:39:39.759Z,3.23
2022-08-09T08:42:12.900Z,4.07
2022-08-09T08:44:43.457Z,3.93
2022-08-09T08:47:14.901Z,3.70
2022-08-09T08:49:48.272Z,2.90
2022-08-09T08:55:07.523Z,2.53
2022-08-09T08:57:37.473Z,2.40
2022-08-09T09:00:16.951Z,2.30
2022-08-09T09:02:53.663Z,2.80
2022-08-09T09:05:32.937Z,3.70
2022-08-09T09:08:29.951Z,271.63
2022-08-09T09:11:03.395Z,7.07
2022-08-09T09:13:41.852Z,2.60
2022-08-09T09:16:30.981Z,10.40
2022-08-09T09:21:58.803Z,203.40
2022-08-09T09:24:29.963Z,25.70
2022-08-09T09:26:58.923Z,349.03
2022-08-09T09:30:05.374Z,544.00
2022-08-09T09:32:34.549Z,2.20
2022-08-09T09:35:09.288Z,1.80
2022-08-09T09:37:40.324Z,2.70
2022-08-09T09:40:11.829Z,3.10
2022-08-09T09:42:46.083Z,1.60
2022-08-09T09:45:26.709Z,5.10
2022-08-09T09:47:58.538Z,1.73
2022-08-09T09:50:49.649Z,3.07
2022-08-09T09:53:34.325Z,1.63
2022-08-09T09:56:30.851Z,1.70
2022-08-09T09:58:58.980Z,2.30
2022-08-09T10:01:36.712Z,2.10
2022-08-09T10:04:09.439Z,3.47
2022-08-09T10:06:46.762Z,5.33
2022-08-09T10:09:22.712Z,1.60
2022-08-09T10:12:07.772Z,1.80
2022-08-09T10:14:48.266Z,1.67
2022-08-09T10:17:54.942Z,2.27
2022-08-09T10:20:15.074Z,1.67
2022-08-09T10:22:45.427Z,2.83
2022-08-09T10:25:15.357Z,1.50
2022-08-09T10:27:56.792Z,1338.37
2022-08-09T10:32:03.970Z,1999.90
2022-08-09T10:34:04.619Z,1009.17
2022-08-09T10:36:05.160Z,4.00
2022-08-09T10:38:57.037Z,1.60
2022-08-09T10:41:23.218Z,1.70
2022-08-09T10:43:59.786Z,2.63
2022-08-09T10:47:03.955Z,2.70
2022-08-09T10:49:57.509Z,2.17
2022-08-09T10:52:49.634Z,1.50
2022-08-09T10:55:25.330Z,1.63
2022-08-09T10:57:55.991Z,5.57
2022-08-09T11:00:51.109Z,2.53
2022-08-09T11:03:46.945Z,1.73
2022-08-09T11:06:21.124Z,2.03
2022-08-09T11:08:53.271Z,4.60
2022-08-09T11:11:24.233Z,3.80
2022-08-09T11:14:28.025Z,3.97
2022-08-09T11:16:58.057Z,4.20
2022-08-09T11:20:07.930Z,1.90
2022-08-09T11:23:02.805Z,1.90
2022-08-09T11:25:47.296Z,1.97
2022-08-09T11:28:54.707Z,1.20
2022-08-09T11:31:49.602Z,2.13
2022-08-09T11:34:29.344Z,1.70
2022-08-09T11:36:57.829Z,2.10
2022-08-09T11:39:38.093Z,1.50
2022-08-09T11:42:14.740Z,1.73
2022-08-09T11:44:48.481Z,3.13
2022-08-09T11:47:18.006Z,1.70
2022-08-09T11:50:55.203Z,2.57
2022-08-09T11:54:00.643Z,1.73
2022-08-09T11:56:41.443Z,2.97
2022-08-09T11:59:12.309Z,2.83
2022-08-09T12:02:17.127Z,4.50
2022-08-09T12:04:37.215Z,1.40
2022-08-09T12:07:07.957Z,3.80
2022-08-09T12:09:37.485Z,4.13
2022-08-09T12:12:12.830Z,2.83
2022-08-09T12:15:07.186Z,4.70
2022-08-09T12:17:44.782Z,2.30
2022-08-09T12:20:21.965Z,2.50
2022-08-09T12:22:52.711Z,2.20
2022-08-09T12:25:36.704Z,8.60
2022-08-09T12:29:00.252Z,2.57
2022-08-09T12:30:59.981Z,2.93
2022-08-09T12:33:50.957Z,3.60
2022-08-09T12:36:31.701Z,2.93
2022-08-09T12:39:01.675Z,3.70
2022-08-09T12:41:38.899Z,1.73
2022-08-09T12:44:10.217Z,2.47
2022-08-09T12:46:43.357Z,3.47
2022-08-09T12:49:20.933Z,2.93
2022-08-09T12:52:01.990Z,2.40
2022-08-09T12:54:32.948Z,4.60
2022-08-09T12:57:01.322Z,2.70
2022-08-09T12:59:40.106Z,2.00
2022-08-09T13:02:24.542Z,2.80
2022-08-09T13:05:02.990Z,9.97
2022-08-09T13:07:50.440Z,1.63
2022-08-09T13:10:20.577Z,1.80
2022-08-09T13:13:10.802Z,2.07
2022-08-09T13:15:37.925Z,2.80
2022-08-09T13:18:17.313Z,3.43
2022-08-09T13:21:04.334Z,1.90
2022-08-09T13:24:16.966Z,2.07
2022-08-09T13:26:41.805Z,6.60
2022-08-09T13:29:13.190Z,2.03
2022-08-09T13:32:16.348Z,2.20
2022-08-09T13:34:46.933Z,3.60
2022-08-09T13:37:50.889Z,3.27
2022-08-09T13:41:52.252Z,2.90
2022-08-09T13:42:56.968Z,2.00
2022-08-09T13:45:32.590Z,2.63
2022-08-09T13:48:14.458Z,2.00
2022-08-09T13:50:43.480Z,2.47
2022-08-09T13:53:13.459Z,1.93
2022-08-09T13:55:44.899Z,2.03
2022-08-09T13:58:16.820Z,3.03
2022-08-09T14:00:50.603Z,2.90
2022-08-09T14:04:02.404Z,1.80
2022-08-09T14:06:19.380Z,2.33
2022-08-09T14:08:56.221Z,1.60
2022-08-09T14:11:26.565Z,2.57
2022-08-09T14:14:21.957Z,2.00
2022-08-09T14:16:43.264Z,1.93
2022-08-09T14:19:11.565Z,2.93
2022-08-09T14:21:40.078Z,3.23
2022-08-09T14:24:21.921Z,4.00
2022-08-09T14:27:00.306Z,2.20
2022-08-09T14:30:35.970Z,3.60
2022-08-09T14:32:19.675Z,2.20
2022-08-09T14:34:57.045Z,2.93
2022-08-09T14:37:28.108Z,2.57
2022-08-09T14:39:58.478Z,4.00
2022-08-09T14:42:30.700Z,3.00
2022-08-09T14:46:55.436Z,2.43
2022-08-09T14:47:57.166Z,2.97
2022-08-09T14:50:30.675Z,3.90
2022-08-09T14:52:59.955Z,3.43
2022-08-09T14:55:32.157Z,3.43
2022-08-09T14:58:03.538Z,2.40
2022-08-09T15:00:36.115Z,2.70
2022-08-09T15:03:06.787Z,3.07
2022-08-09T15:05:36.699Z,2.23
2022-08-09T15:08:06.629Z,2.50
2022-08-09T15:10:40.183Z,2.33
2022-08-09T15:13:08.658Z,2.70
2022-08-09T15:15:39.296Z,3.20
2022-08-09T15:18:12.354Z,3.07
2022-08-09T15:22:00.756Z,3.50
2022-08-09T15:24:01.003Z,2.90
2022-08-09T15:26:30.767Z,2.40
2022-08-09T15:29:04.060Z,3.60
2022-08-09T15:31:40.950Z,2.27
2022-08-09T15:34:33.611Z,3.10
2022-08-09T15:37:01.016Z,3.40
2022-08-09T15:39:34.812Z,2.47
2022-08-09T15:42:20.042Z,3.20
2022-08-09T15:44:50.526Z,2.87
2022-08-09T15:47:22.324Z,3.53
2022-08-09T15:50:04.190Z,3.00
2022-08-09T15:52:35.547Z,4.00
2022-08-09T15:55:05.430Z,3.47
2022-08-09T15:57:44.512Z,7.23
2022-08-09T16:00:25.891Z,4.37
2022-08-09T16:02:57.167Z,2.80
2022-08-09T16:05:47.338Z,4.67
2022-08-09T16:08:29.749Z,5.10
2022-08-09T16:11:01.715Z,4.03
2022-08-09T16:14:03.782Z,5.10
2022-08-09T16:16:26.162Z,4.20
2022-08-09T16:18:56.808Z,2.80
2022-08-09T16:21:26.061Z,4.43
2022-08-09T16:23:58.837Z,2.93
2022-08-09T16:26:33.552Z,3.97
2022-08-09T16:29:06.142Z,5.90
2022-08-09T16:32:20.065Z,2.70
2022-08-09T16:34:55.352Z,4.90
2022-08-09T16:37:18.813Z,34.60
2022-08-09T16:39:54.667Z,3.43
2022-08-09T16:42:33.451Z,2.50
2022-08-09T16:45:03.419Z,2.23
2022-08-09T16:48:40.064Z,2.20
2022-08-09T16:50:29.627Z,1.60
2022-08-09T16:53:01.620Z,1.43
2022-08-09T16:55:31.567Z,2.40
2022-08-09T16:58:21.119Z,1.80
2022-08-09T17:00:51.608Z,2.23
2022-08-09T17:03:21.322Z,2.07
2022-08-09T17:06:09.328Z,1.47
2022-08-09T17:09:01.662Z,1.70
2022-08-09T17:11:40.542Z,2.00
2022-08-09T17:14:15.909Z,2.20
2022-08-09T17:16:59.732Z,1.67
2022-08-09T17:19:47.329Z,4.17
2022-08-09T17:22:24.063Z,3.90
2022-08-09T17:25:02.662Z,2.40
2022-08-09T17:27:31.527Z,2.20
2022-08-09T17:30:00.003Z,3.47
2022-08-09T17:32:37.396Z,2.17
2022-08-09T17:35:12.201Z,2.30
2022-08-09T17:38:12.111Z,3.27
2022-08-09T17:40:32.014Z,1.73
2022-08-09T17:43:32.279Z,1.83
2022-08-09T17:46:03.142Z,3.30
2022-08-09T17:48:34.939Z,2.40
2022-08-09T17:51:09.591Z,4.00
2022-08-09T17:53:52.020Z,8.30
2022-08-09T17:56:27.870Z,2.10
2022-08-09T17:59:01.201Z,9.97
2022-08-09T18:02:03.876Z,1.80
2022-08-09T18:04:22.196Z,1.90
2022-08-09T18:06:54.972Z,3.53
2022-08-09T18:09:35.745Z,2.50
2022-08-09T18:12:17.478Z,1.67
2022-08-09T18:14:54.445Z,1.40
2022-08-09T18:17:27.061Z,1.43
2022-08-09T18:20:59.656Z,2.83
2022-08-09T18:23:05.832Z,1.57
2022-08-09T18:25:50.736Z,1.07
2022-08-09T18:30:38.840Z,1.80
2022-08-09T18:31:10.974Z,1.80
2022-08-09T18:33:40.163Z,1.53
2022-08-09T18:36:14.296Z,2.40
2022-08-09T18:39:00.950Z,2.77
2022-08-09T18:41:34.294Z,5.67
2022-08-09T18:44:13.276Z,3.33
2022-08-09T18:46:51.368Z,2.27
2022-08-09T18:49:31.868Z,2.13
2022-08-09T18:52:02.417Z,3.40
2022-08-09T18:54:30.987Z,2.63
2022-08-09T18:57:06.310Z,5.20
2022-08-09T18:59:48.550Z,2.07
2022-08-09T19:02:19.095Z,2.47
2022-08-09T19:05:15.325Z,4.30
2022-08-09T19:07:38.004Z,2.10
2022-08-09T19:10:16.708Z,1.83
2022-08-09T19:12:55.545Z,2.00
2022-08-09T19:15:36.038Z,2.53
2022-08-09T19:18:05.657Z,5.03
2022-08-09T19:20:38.903Z,2.00
2022-08-09T19:23:16.504Z,2.00
2022-08-09T19:26:02.183Z,2.50
2022-08-09T19:28:34.019Z,6.30
2022-08-09T19:31:07.848Z,1.97
2022-08-09T19:33:36.903Z,2.37
2022-08-09T19:36:11.686Z,4.57
2022-08-09T19:38:43.106Z,3.90
2022-08-09T19:41:33.054Z,2.50
2022-08-09T19:44:04.312Z,3.10
2022-08-09T19:46:35.150Z,2.57
2022-08-09T19:50:07.438Z,2.17
2022-08-09T19:51:55.740Z,3.60
2022-08-09T19:54:29.168Z,4.40
2022-08-09T19:56:58.658Z,2.00
2022-08-09T19:59:58.999Z,2.53
2022-08-09T20:04:12.175Z,4.03
2022-08-09T20:05:11.717Z,3.23
2022-08-09T20:07:59.470Z,2.50
2022-08-09T20:10:34.391Z,2.90
2022-08-09T20:13:06.292Z,7.73
2022-08-09T20:16:34.295Z,5.63
2022-08-09T20:18:27.557Z,2.07
2022-08-09T20:20:56.730Z,5.47
2022-08-09T20:23:39.411Z,4.50
2022-08-09T20:26:13.162Z,3.57
2022-08-09T20:28:48.494Z,2.27
2022-08-09T20:31:18.578Z,2.77
2022-08-09T20:33:52.501Z,1.80
2022-08-09T20:36:30.354Z,3.53
2022-08-09T20:39:28.853Z,3.50
2022-08-09T20:41:49.921Z,4.90
2022-08-09T20:44:26.356Z,2.43
2022-08-09T20:46:54.873Z,2.73
2022-08-09T20:49:24.163Z,5.27
2022-08-09T20:51:56.966Z,2.50
2022-08-09T20:54:28.886Z,4.10
2022-08-09T20:56:58.783Z,2.37
2022-08-09T21:00:22.447Z,4.17
2022-08-09T21:02:18.671Z,2.83
2022-08-09T21:05:50.980Z,3.13
2022-08-09T21:07:40.716Z,3.30
2022-08-09T21:10:12.663Z,3.07
2022-08-09T21:15:34.142Z,3.50
2022-08-09T21:18:23.188Z,2.33
2022-08-09T21:20:54.195Z,2.47
2022-08-09T21:23:26.540Z,4.50
2022-08-09T21:26:11.524Z,4.90
2022-08-09T21:28:55.700Z,4.10
2022-08-09T21:31:24.461Z,5.00
2022-08-09T21:34:13.078Z,3.43
2022-08-09T21:36:55.426Z,3.50
2022-08-09T21:39:27.889Z,5.33
2022-08-09T21:42:10.921Z,3.63
2022-08-09T21:44:42.873Z,5.07
2022-08-09T21:47:17.666Z,4.33
2022-08-09T21:49:48.217Z,4.13
2022-08-09T21:52:20.322Z,5.37
2022-08-09T21:54:59.582Z,2.97
2022-08-09T21:57:38.997Z,5.07
2022-08-09T22:00:25.968Z,3.30
2022-08-09T22:02:58.352Z,4.13
2022-08-09T22:05:35.681Z,3.50
2022-08-09T22:08:07.116Z,3.83
2022-08-09T22:11:04.794Z,3.23
2022-08-09T22:13:34.806Z,2.67
2022-08-09T22:16:07.148Z,3.60
2022-08-09T22:18:37.329Z,4.30
2022-08-09T22:21:09.456Z,3.73
2022-08-09T22:23:59.236Z,3.73
2022-08-09T22:26:34.743Z,2.77
2022-08-09T22:29:08.705Z,3.13
2022-08-09T22:31:50.215Z,3.50
2022-08-09T22:34:26.263Z,6.63
2022-08-09T22:36:55.239Z,4.00
2022-08-09T22:39:56.190Z,3.03
2022-08-09T22:42:20.951Z,3.40
2022-08-09T22:48:06.081Z,2.97
2022-08-09T22:48:18.806Z,5.03
2022-08-09T22:50:30.189Z,3.10
2022-08-09T22:52:58.816Z,2.40
2022-08-09T22:55:33.690Z,4.00
2022-08-09T22:58:30.941Z,3.13
2022-08-09T23:01:03.169Z,2.90
2022-08-09T23:04:06.041Z,2.80
2022-08-09T23:06:34.838Z,3.03
2022-08-09T23:09:05.495Z,4.60
2022-08-09T23:11:34.049Z,4.30
2022-08-09T23:14:03.436Z,3.10
2022-08-09T23:16:32.138Z,4.00
2022-08-09T23:19:01.952Z,2.63
2022-08-09T23:21:34.434Z,2.00
2022-08-09T23:24:05.957Z,4.40
2022-08-09T23:26:35.964Z,5.40
2022-08-09T23:29:04.822Z,2.67
2022-08-09T23:31:33.052Z,2.63
2022-08-09T23:34:03.799Z,4.10
2022-08-09T23:36:32.603Z,6.60
2022-08-09T23:39:00.966Z,5.00
2022-08-09T23:41:29.809Z,5.40
2022-08-09T23:44:02.409Z,3.47
2022-08-09T23:46:31.206Z,2.77
2022-08-09T23:48:59.876Z,3.03
2022-08-09T23:51:29.848Z,3.20
2022-08-09T23:54:02.146Z,6.50
2022-08-09T23:56:52.775Z,4.63
2022-08-09T23:59:21.379Z,2.67
